Bentley, MI (48613)

11:59 PM EDT on May 26, 2015 (GMT -0400)
Pinconning farm country, (Pintucky Hawg Farm) | | Change Station
CLOSE
Current Station
Personal Weather Station
Location: Pinconning, MI
Elevation: 623 ft
Nearby Weather Stations

Elev 623 ft 43.82 °N, 84.03 °W | Updated 13 seconds ago

Mostly Cloudy
Mostly Cloudy
66.4 °F
Feels Like 66.4 °F
N
2.2
Wind Variable Wind from East

Today
High -- | Low -- °F
--% Chance of Precip.
Yesterday
High -- | Low -- °F
Precip. -- in
6:00 AM 9:06 PM
Waxing Gibbous, 63% visible
Pressure 29.81 in
Visibility 10.0 miles
Clouds Scattered Clouds 3500 ft
Scattered Clouds 8500 ft
Dew Point 65 °F
Humidity 94%
Rainfall 0.55 in
Snow Depth Not available.
UV 0 out of 12
Pollen 9.20 out of 12
Air Quality Not available.
Flu Activity Sporadic
METAR KIKW 270354Z AUTO 18008KT 10SM SCT035 SCT085 20/17 A2981 RMK AO2 T01970165

More Conditions Fewer Conditions

Pressure 29.81 in
Visibility 10.0 miles
Clouds Scattered Clouds 3500 ft
Scattered Clouds 8500 ft
Dew Point 65 °F
Humidity 94%
Rainfall 0.55 in
Snow Depth Not available.
UV 0 out of 12
Pollen 9.20 out of 12
Air Quality Not available.
Flu Activity Sporadic
METAR KIKW 270354Z AUTO 18008KT 10SM SCT035 SCT085 20/17 A2981 RMK AO2 T01970165

More Conditions Fewer Conditions

10-Day Weather Forecast

Almanac

Astronomy

May. 26, 2015 Rise Set
Actual Time
Civil Twilight
Nautical Twilight
Astronomical Twilight
Moon
Length of Visible Light
Length of Day
Tomorrow will be .
, % of the Moon is Illuminated

Today's Extremes

State Highs State Lows

Community

WunderPhotos

Upload Photos

1,824,600 photos uploaded!

WunderBlogs® & News

Nearby

Air Quality

  Air Quality AQ Index Pollutant
Not available.

Snow Depth

Station Depth Elevation

Earthquake Activity

City Distance Mag. Time & Date
Minimum magnitude displayed is 2.5.

Coastal Water Temperatures

Place Temperature

Stations

Nearby Weather Stations

Station Location Temp. Windchill Dew Point Humidity Wind Precip. Elev Updated Type